Wetterdaten: April 2010
Datum Temp. A. Feuchte A. Luftdruck Regen Wind Richtung Taupunkt Windchill Windben
01.04.2010 4,0 C 80 % 1014,3 hPa 5,7 l/m 5,8 km/h SW 0,5 C 2,2 C 3,3 km/h
02.04.2010 7,9 C 63 % 1012,7 hPa 0,4 l/m 11,0 km/h O-SO 0,8 C 4,5 C 6,1 km/h
03.04.2010 9,9 C 74 % 1010,0 hPa 5,0 l/m 5,5 km/h S 5,2 C 8,7 C 3,1 km/h
04.04.2010 8,0 C 74 % 1014,9 hPa 1,1 l/m 13,1 km/h W 3,3 C 5,6 C 7,3 km/h
05.04.2010 6,4 C 71 % 1026,3 hPa 1,4 l/m 0,0 km/h S 1,2 C 6,4 C 0,0 km/h
06.04.2010 9,0 C 70 % 1019,2 hPa 0,0 l/m 0,0 km/h SO 3,3 C 9,0 C 0,0 km/h
07.04.2010 12,6 C 59 % 1016,4 hPa 0,0 l/m 2,3 km/h O-NO 3,9 C 12,5 C 1,3 km/h
08.04.2010 12,4 C 73 % 1023,0 hPa 0,0 l/m 0,0 km/h NO 7,4 C 12,4 C 0,0 km/h
09.04.2010 10,5 C 76 % 1027,3 hPa 0,0 l/m 0,0 km/h O-SO 6,0 C 10,5 C 0,0 km/h
10.04.2010 9,4 C 64 % 1023,3 hPa 0,0 l/m 2,8 km/h NO 2,4 C 8,9 C 1,5 km/h
11.04.2010 5,6 C 71 % 1017,0 hPa 0,4 l/m 5,0 km/h NO 0,3 C 4,8 C 2,8 km/h
12.04.2010 7,4 C 63 % 1013,1 hPa 0,0 l/m 10,9 km/h NO 0,6 C 4,3 C 6,0 km/h
13.04.2010 5,6 C 73 % 1012,3 hPa 0,0 l/m 0,2 km/h O-SO 0,8 C 5,6 C 0,1 km/h
14.04.2010 7,0 C 82 % 1012,8 hPa 0,4 l/m 0,0 km/h O-NO 4,2 C 7,0 C 0,0 km/h
15.04.2010 9,1 C 69 % 1014,0 hPa 0,0 l/m 0,5 km/h NO 3,2 C 9,1 C 0,3 km/h
16.04.2010 9,6 C 72 % 1017,4 hPa 0,0 l/m 3,3 km/h NO 4,5 C 8,8 C 1,8 km/h
17.04.2010 10,7 C 64 % 1015,5 hPa 0,0 l/m 2,8 km/h NO 3,1 C 10,3 C 1,5 km/h
18.04.2010 11,7 C 63 % 1011,2 hPa 0,0 l/m 1,8 km/h N-NO 4,0 C 11,7 C 1,0 km/h
19.04.2010 14,0 C 55 % 1012,6 hPa 0,0 l/m 1,1 km/h O 4,1 C 14,0 C 0,6 km/h
20.04.2010 12,4 C 69 % 1014,5 hPa 0,4 l/m 6,5 km/h O-NO 6,3 C 11,3 C 3,6 km/h
21.04.2010 9,9 C 60 % 1015,1 hPa 0,0 l/m 5,3 km/h N-NO 1,6 C 8,9 C 3,0 km/h
22.04.2010 10,7 C 64 % 1011,4 hPa 0,0 l/m 5,3 km/h O-SO 3,0 C 9,9 C 3,0 km/h
23.04.2010 11,4 C 60 % 1011,0 hPa 0,0 l/m 3,9 km/h O-SO 2,9 C 10,8 C 2,2 km/h
24.04.2010 14,1 C 53 % 1016,2 hPa 0,0 l/m 2,1 km/h NO 3,4 C 13,9 C 1,2 km/h
25.04.2010 16,4 C 57 % 1019,8 hPa 0,0 l/m 2,1 km/h O-NO 6,9 C 16,3 C 1,2 km/h
26.04.2010 16,0 C 68 % 1023,4 hPa 3,6 l/m 0,5 km/h N-NO 9,5 C 16,0 C 0,3 km/h
27.04.2010 14,1 C 66 % 1023,8 hPa 0,0 l/m 0,0 km/h NO 6,9 C 14,1 C 0,0 km/h
28.04.2010 15,9 C 63 % 1021,0 hPa 0,0 l/m 5,8 km/h O-NO 7,9 C 15,3 C 3,3 km/h
29.04.2010 19,0 C 57 % 1012,5 hPa 0,0 l/m 1,8 km/h O-NO 9,5 C 19,0 C 1,0 km/h
30.04.2010 15,3 C 77 % 1012,2 hPa 3,6 l/m 4,8 km/h SW 11,2 C 14,2 C 2,7 km/h
Min-Datum 13.04.10 24.04.10 03.04.10 10 Tage 01.04.10 - 13.04.10 01.04.10 01.04.10
Min-Zeit 06:53 17:53 19:53 - 06:53 - 06:53 11:53 06:53
Minimum -1,6 C 19 % 1007,3 hPa - 0,0 km/h - -3,2 C -4,6 C 0,0 km/h
Max-Datum 25.04.10 02.04.10 09.04.10 01.04.10 04.04.10 - 30.04.10 25.04.10 04.04.10
Max-Zeit 16:53 08:53 22:53 06:53 14:53 - 14:53 16:53 14:53
Maximum 32,5 C 93 % 1027,9 hPa 5,7 l/m 51,2 km/h
W
- 14,1 C 32,5 C 28,4 km/h
W
Durchschnitt 10,9 C 67 % 1016,5 hPa #21,7 l/m 3,5 km/h NO 4,3 C 10,2 C 1,9 km/h

Durchschnitt Minimum Temp.3,2 C
Durchschnitt Maximum Temp.22,6 C